Big Wells, Texas
Current Conditions -  °F | °C
As of 6:15 PM on Thursday 27 Nov 2014 (Local Time) from KCZT Reporting Station
Clear Clear  
Wind Chill: 61°   Ceiling: Unl
Heat Index: 61°   Visibility: 10mi
Dew Point: 37°   Wind: 3mph
Humidity: 42%   Direction: 80°E
Pressure: 30.35"   Gusts: NA
Location:  28.57°N, 99.57°W
Report Text: KCZT 280015Z AUTO 08003KT 10SM CLR 16/03 A3035 RMK AO2
Loading
Personal Weather Stations






























Interactive Weather Map New forecast layout! Learn more

10-Day Weather Forecast

Advertisements
Track Severe Weather on mobile